NZWN/WLG METAR and TAF weather

Enter ICAO airport designator
Station Type Date Time Source
NZWN METAR 2020/07/03 14:30 UTC NOAA

NZWN 031430Z AUTO 02007KT 9999 FEW023/// 08/07 Q1020 NOSIG


Station Type Date Time Source
NZWN Decoded METAR 2020/07/03 14:30 UTC NOAA

Wellington Airport, New Zealand (NZWN) 41-20S 174-48E 8M
Jul 03, 2020 - 10:30 AM EDT / 2020.07.03 1430 UTC
Wind: from the NNE (020 degrees) at 8 MPH (7 KT):0
Visibility: greater than 7 mile(s):0
Sky conditions: mostly clear
Temperature: 46 F (8 C)
Dew Point: 44 F (7 C)
Relative Humidity: 93%
Pressure (altimeter): 30.12 in. Hg (1020 hPa)
ob: NZWN 031430Z AUTO 02007KT 9999 FEW023/// 08/07 Q1020 NOSIG
cycle: 14

Station Type Date Time Source
NZWN TAF 2020/07/03 12:12 UTC NOAA

TAF NZWN 031108Z 0312/0412 01008KT 9999 FEW025
FM040000 36015G25KT 9999 FEW015 SCT025
TEMPO 0409/0412 BKN014

Example: see airport list